In Rescue
 
Open Full Screen Window  High Contrast Mode
Wind Gusting 00 knots
03
September 18, 2020 10:18 PM CDT
Weather Information
Wind Direction
  150 °
Wind Speed
  03 kt (3 mph)
Wind Gust
  00 kt (0 mph)
Altimeter
30.28 in
Visibility
10 SM
Temperature
08° C
46° F
Dewpoint
03° C
37° F
Humidity
71%
1hr Rain Fall
00.00 in.
24hr Rain Fall
00.00 in.
Sky Condition
Clear
VFR

METAR KDVP 190318Z AUTO 15003KT 10SM CLR 08/03 A3028 RMK AO2 T00770025

FAA Disclaimer: The data displayed is for advisory purposes only and is not to be used for flight planning or operations.